This is the latest recevied weather packets stored in our database for station/object EW7404. If no packets are shown the sender has not sent any weather packets the latest 10 day(s).
| Time | Temp. | Humidity | Pressure | Rain* | Wind** | Luminosity | Snow |
|---|---|---|---|---|---|---|---|
| 1777831816 | -7.22° C | 100% | 947.3 hPa | 0 mm | - | - | - |
| 1777827615 | -6.67° C | 100% | 947.2 hPa | 0 mm | - | - | - |
| 1777825815 | -6.67° C | 100% | 947.2 hPa | 0.25 mm | - | - | - |
| 1777821635 | -6.67° C | 100% | 947.2 hPa | 0 mm | - | - | - |
| 1777820415 | -6.67° C | 100% | 947.3 hPa | 0 mm | - | - | - |
| 1777819836 | -6.67° C | 100% | 947.4 hPa | 0.25 mm | - | - | - |
| 1777818615 | -6.67° C | 100% | 947.4 hPa | 0.25 mm | - | - | - |
| 1777812016 | -6.67° C | 100% | 947.4 hPa | 6.1 mm | - | - | - |
| 1777803635 | -7.22° C | 100% | 947 hPa | 5.33 mm | - | - | - |
| 1777803017 | -7.22° C | 99% | 947 hPa | 5.33 mm | - | - | - |
| 1777798215 | -8.33° C | 99% | 946.5 hPa | 0 mm | - | - | - |
| 1777795816 | -8.89° C | 99% | 946.2 hPa | 65.02 mm | - | - | - |
| 1777787415 | -10.56° C | 98% | 944.9 hPa | 0 mm | - | - | - |
| 1777784416 | -10.56° C | 98% | 944.7 hPa | 0 mm | - | - | - |
| 1777781416 | -10.56° C | 98% | 944.7 hPa | 0 mm | - | - | - |
| 1777780216 | -10° C | 97% | 944.4 hPa | 6.1 mm | - | - | - |
| 1777779615 | -10.56° C | 97% | 944.2 hPa | 6.1 mm | - | - | - |
| 1777773615 | -9.44° C | 98% | 944.8 hPa | 0 mm | - | - | - |
| 1777771836 | -8.89° C | 99% | 944.8 hPa | 0 mm | - | - | - |
| 1777768815 | -8.33° C | 100% | 945.1 hPa | 0 mm | - | - | - |
| 1777765216 | -7.78° C | 100% | 945.4 hPa | 0 mm | - | - | - |
| 1777755615 | -7.22° C | 100% | 947 hPa | 0 mm | - | - | - |
| 1777752615 | -7.22° C | 100% | 947.2 hPa | 0 mm | - | - | - |
| 1777750816 | -6.67° C | 100% | 947.3 hPa | 0 mm | - | - | - |
| 1777746636 | -6.11° C | 100% | 947.1 hPa | 0 mm | - | - | - |
* Rain latest hour (hover to see other rain measurements)
** Current wind speed in m/s (hover to see current wind gust speed)